Time;durP1;ratioP1;P1;durP2;ratioP2;P2;SDS_P1;SDS_P2;PMS_P1;PMS_P2;Temp;Humidity;BMP_temperature;BMP_pressure;BME280_temperature;BME280_humidity;BME280_pressure;Samples;Min_cycle;Max_cycle;Signal;HPM_P1;HPM_P2
2023/12/27 00:00:42;;;;;;;18.00;5.88;;;3.30;99.90;;;;;;5131925;27;20039;-57
2023/12/27 00:03:08;;;;;;;20.15;6.57;;;3.70;99.90;;;;;;5111068;28;20100;-57
2023/12/27 00:05:33;;;;;;;23.98;6.88;;;3.90;99.90;;;;;;5111560;28;20375;-55
2023/12/27 00:07:59;;;;;;;13.75;6.72;;;3.80;99.90;;;;;;5111212;28;20027;-56
2023/12/27 00:10:24;;;;;;;18.08;7.13;;;4.50;99.90;;;;;;5111408;28;20506;-57
2023/12/27 00:12:50;;;;;;;19.40;6.53;;;4.40;99.90;;;;;;5111546;28;20557;-56
2023/12/27 00:15:16;;;;;;;15.52;6.65;;;3.40;99.90;;;;;;5110897;28;20074;-57
2023/12/27 00:17:42;;;;;;;17.13;6.70;;;3.90;99.90;;;;;;5111367;28;20092;-56
2023/12/27 00:20:08;;;;;;;16.67;6.78;;;4.40;99.90;;;;;;5111865;27;20071;-54
2023/12/27 00:22:34;;;;;;;15.73;6.43;;;4.30;99.90;;;;;;5110763;28;20059;-55
2023/12/27 00:25:00;;;;;;;17.80;7.55;;;3.40;99.90;;;;;;5111182;28;20081;-55
2023/12/27 00:27:25;;;;;;;19.02;6.95;;;3.80;99.90;;;;;;5111309;28;20032;-56
2023/12/27 00:29:51;;;;;;;19.95;7.45;;;3.40;99.90;;;;;;5111124;28;20537;-57
2023/12/27 00:32:17;;;;;;;20.45;6.72;;;3.20;99.90;;;;;;5110624;28;20079;-57
2023/12/27 00:34:42;;;;;;;18.38;7.75;;;4.00;99.90;;;;;;5111003;28;20126;-55
2023/12/27 00:37:09;;;;;;;23.63;7.90;;;4.30;99.90;;;;;;5111119;28;20039;-56
2023/12/27 00:39:35;;;;;;;20.25;7.63;;;3.20;99.90;;;;;;5110784;28;20070;-55
2023/12/27 00:42:01;;;;;;;22.60;7.63;;;3.20;99.90;;;;;;5131575;28;20028;-56
2023/12/27 00:44:26;;;;;;;22.42;7.97;;;3.70;99.90;;;;;;5131233;28;20426;-56
2023/12/27 00:46:52;;;;;;;27.35;8.13;;;3.30;99.90;;;;;;5131544;28;20041;-55
2023/12/27 00:49:18;;;;;;;25.00;8.90;;;4.20;99.90;;;;;;5131197;28;20075;-54
2023/12/27 00:51:44;;;;;;;18.30;7.60;;;3.30;99.90;;;;;;5131297;28;20143;-55
2023/12/27 00:54:10;;;;;;;21.80;8.05;;;3.40;99.90;;;;;;5131640;28;20491;-57
2023/12/27 00:56:36;;;;;;;17.70;8.10;;;3.70;99.90;;;;;;5131280;28;20543;-57
2023/12/27 00:59:02;;;;;;;20.67;8.27;;;4.40;99.90;;;;;;5131101;28;20486;-55
2023/12/27 01:01:30;;;;;;;21.20;8.18;;;3.70;99.90;;;;;;5131141;28;20046;-56
2023/12/27 01:03:56;;;;;;;24.17;8.02;;;4.40;99.90;;;;;;5124215;28;20135;-56
2023/12/27 01:06:22;;;;;;;23.27;7.53;;;4.20;99.90;;;;;;5110659;28;20035;-54
2023/12/27 01:08:48;;;;;;;22.98;7.25;;;3.70;99.90;;;;;;5110479;28;20040;-56
2023/12/27 01:11:14;;;;;;;16.67;7.80;;;3.90;99.90;;;;;;5110558;28;20032;-56
2023/12/27 01:13:39;;;;;;;22.65;7.85;;;4.30;99.90;;;;;;5110838;28;20400;-55
2023/12/27 01:16:05;;;;;;;20.15;7.65;;;3.20;99.90;;;;;;5111025;28;20047;-56
2023/12/27 01:18:31;;;;;;;19.90;6.82;;;3.60;99.90;;;;;;5092218;28;20126;-57
2023/12/27 01:20:57;;;;;;;19.90;7.40;;;4.20;99.90;;;;;;5110317;28;20509;-54
2023/12/27 01:23:22;;;;;;;22.33;8.52;;;3.20;99.90;;;;;;5110382;28;20034;-57
2023/12/27 01:25:48;;;;;;;29.00;9.10;;;3.20;99.90;;;;;;5110457;28;20035;-54
2023/12/27 01:28:14;;;;;;;27.38;9.25;;;3.70;99.90;;;;;;5110432;28;20043;-55
2023/12/27 01:30:40;;;;;;;33.08;10.10;;;3.10;99.90;;;;;;5110263;28;20124;-57
2023/12/27 01:33:06;;;;;;;17.65;7.82;;;4.00;99.90;;;;;;5110347;28;20474;-56
2023/12/27 01:35:32;;;;;;;23.88;8.60;;;3.30;99.90;;;;;;5110715;28;20039;-56
2023/12/27 01:37:57;;;;;;;20.67;7.95;;;4.10;99.90;;;;;;5110276;28;20036;-56
2023/12/27 01:40:23;;;;;;;21.73;7.68;;;3.40;99.90;;;;;;5110114;28;20035;-56
2023/12/27 01:42:48;;;;;;;26.20;7.72;;;4.00;99.90;;;;;;5111337;28;20063;-57
2023/12/27 01:45:14;;;;;;;28.40;8.77;;;3.00;99.90;;;;;;5114160;28;20051;-57
2023/12/27 01:47:41;;;;;;;21.85;9.00;;;3.80;99.90;;;;;;5113971;28;20122;-56
2023/12/27 01:50:09;;;;;;;20.73;7.95;;;3.90;99.90;;;;;;5114048;28;20512;-54
2023/12/27 01:52:39;;;;;;;23.60;8.85;;;3.70;99.90;;;;;;5095186;28;20092;-55
2023/12/27 01:55:06;;;;;;;20.55;8.82;;;3.80;99.90;;;;;;5113974;28;20092;-56
2023/12/27 01:57:32;;;;;;;17.90;8.48;;;3.30;99.90;;;;;;5114012;28;20406;-56
2023/12/27 01:59:58;;;;;;;23.02;7.97;;;3.60;99.90;;;;;;5113381;27;20043;-57
2023/12/27 02:02:24;;;;;;;22.85;8.55;;;2.60;99.90;;;;;;5114067;28;20844;-56
2023/12/27 02:04:50;;;;;;;20.45;7.88;;;3.10;99.90;;;;;;5113435;27;20039;-56
2023/12/27 02:07:16;;;;;;;24.90;8.73;;;2.50;99.90;;;;;;5113375;28;20474;-54
2023/12/27 02:09:42;;;;;;;22.33;7.63;;;3.80;99.90;;;;;;5113874;28;20179;-57
2023/12/27 02:12:08;;;;;;;17.67;7.78;;;3.40;99.90;;;;;;5113340;27;20474;-55
2023/12/27 02:14:34;;;;;;;23.75;8.30;;;3.10;99.90;;;;;;5113551;28;20028;-57
2023/12/27 02:17:00;;;;;;;17.50;7.00;;;2.50;99.90;;;;;;5113194;28;20088;-58
2023/12/27 02:19:27;;;;;;;18.88;7.70;;;3.60;99.90;;;;;;5113389;28;20375;-56
2023/12/27 02:21:53;;;;;;;19.00;6.78;;;3.80;99.90;;;;;;5113117;27;20483;-56
2023/12/27 02:24:21;;;;;;;24.05;7.80;;;2.90;99.90;;;;;;5113075;28;20119;-57
2023/12/27 02:26:47;;;;;;;16.52;7.00;;;3.00;99.90;;;;;;5112762;27;20035;-55
2023/12/27 02:29:14;;;;;;;20.13;7.03;;;3.60;99.90;;;;;;5112779;28;20052;-55
2023/12/27 02:31:40;;;;;;;18.85;6.95;;;2.70;99.90;;;;;;5113144;27;20109;-54
2023/12/27 02:34:05;;;;;;;21.30;7.15;;;2.60;99.90;;;;;;5112913;28;20043;-55
2023/12/27 02:36:31;;;;;;;19.65;6.95;;;2.80;99.90;;;;;;5113190;28;20044;-57
2023/12/27 02:38:56;;;;;;;16.45;6.95;;;2.70;99.90;;;;;;5112681;28;20050;-56
2023/12/27 02:41:22;;;;;;;21.40;7.80;;;3.80;99.90;;;;;;5113042;27;20031;-53
2023/12/27 02:43:48;;;;;;;18.55;6.25;;;2.80;99.90;;;;;;5112861;28;20111;-56
2023/12/27 02:46:14;;;;;;;20.73;6.68;;;3.50;99.90;;;;;;5094945;28;20482;-56
2023/12/27 02:48:39;;;;;;;19.65;7.35;;;3.20;99.90;;;;;;5113827;27;20032;-58
2023/12/27 02:51:05;;;;;;;17.08;7.05;;;4.10;99.90;;;;;;5112846;28;20074;-56
2023/12/27 02:53:31;;;;;;;18.30;7.30;;;2.90;99.90;;;;;;5112348;28;20042;-55
2023/12/27 02:55:57;;;;;;;17.80;6.05;;;4.10;99.90;;;;;;5112602;28;20035;-54
2023/12/27 02:58:23;;;;;;;17.58;6.43;;;3.30;99.90;;;;;;5112254;28;20042;-56
2023/12/27 03:00:49;;;;;;;18.30;6.97;;;2.80;99.90;;;;;;5113183;27;20065;-56
2023/12/27 03:03:14;;;;;;;27.63;7.00;;;3.20;99.90;;;;;;5112481;28;20497;-54
2023/12/27 03:05:40;;;;;;;21.55;7.50;;;2.90;99.90;;;;;;5112381;28;20043;-56
2023/12/27 03:08:06;;;;;;;16.05;6.68;;;3.70;99.90;;;;;;5131637;27;20034;-54
2023/12/27 03:10:31;;;;;;;15.10;6.95;;;3.90;99.90;;;;;;5132850;27;20062;-55
2023/12/27 03:12:57;;;;;;;13.93;6.55;;;4.10;99.90;;;;;;5132637;27;20099;-55
2023/12/27 03:15:22;;;;;;;19.70;7.10;;;3.90;99.90;;;;;;5133161;27;20445;-54
2023/12/27 03:17:48;;;;;;;14.05;7.18;;;3.80;99.90;;;;;;5132717;27;20543;-57
2023/12/27 03:20:14;;;;;;;22.48;8.00;;;3.90;99.90;;;;;;5119329;27;20134;-54
2023/12/27 03:22:39;;;;;;;17.48;6.47;;;3.10;99.90;;;;;;5111779;28;20082;-56
2023/12/27 03:25:05;;;;;;;18.27;6.68;;;4.00;99.90;;;;;;5111801;28;20080;-56
2023/12/27 03:27:31;;;;;;;16.50;7.05;;;3.70;99.90;;;;;;5111981;28;20035;-54
2023/12/27 03:29:57;;;;;;;18.67;7.47;;;3.60;99.90;;;;;;5111829;28;20483;-54
2023/12/27 03:32:26;;;;;;;26.17;7.50;;;3.60;99.90;;;;;;5112238;28;20039;-52
2023/12/27 03:34:51;;;;;;;15.20;7.00;;;3.20;99.90;;;;;;5112247;27;20042;-56
2023/12/27 03:37:17;;;;;;;18.52;7.50;;;4.00;99.90;;;;;;5111872;27;20076;-55
2023/12/27 03:39:43;;;;;;;27.83;15.52;;;3.90;99.90;;;;;;5111778;28;20047;-56
2023/12/27 03:42:09;;;;;;;14.25;6.68;;;2.80;99.90;;;;;;5111767;28;20405;-55
2023/12/27 03:44:35;;;;;;;20.80;7.47;;;3.40;99.90;;;;;;5111798;28;20651;-57
2023/12/27 03:47:01;;;;;;;25.05;7.60;;;4.20;99.90;;;;;;5111686;28;20043;-55
2023/12/27 03:49:26;;;;;;;20.92;7.63;;;3.70;99.90;;;;;;5111520;28;20039;-55
2023/12/27 03:51:52;;;;;;;18.95;7.38;;;4.10;99.90;;;;;;5111666;28;20105;-55
2023/12/27 03:54:18;;;;;;;24.08;7.88;;;2.90;99.90;;;;;;5111693;28;20482;-57
2023/12/27 03:56:47;;;;;;;24.05;7.93;;;3.50;99.90;;;;;;5093501;28;20032;-55
2023/12/27 03:59:14;;;;;;;22.95;7.35;;;3.40;99.90;;;;;;5130622;27;20062;-56
2023/12/27 04:01:39;;;;;;;14.48;6.95;;;3.60;99.90;;;;;;5132200;27;20043;-55
2023/12/27 04:04:05;;;;;;;20.85;7.43;;;3.00;99.90;;;;;;5131821;27;20054;-55
2023/12/27 04:06:31;;;;;;;21.88;6.97;;;2.90;99.90;;;;;;5131419;27;20122;-56
2023/12/27 04:08:56;;;;;;;20.45;7.63;;;3.80;99.90;;;;;;5131850;27;20520;-57
2023/12/27 04:11:22;;;;;;;21.52;7.18;;;3.10;99.90;;;;;;5131748;27;20035;-54
2023/12/27 04:13:48;;;;;;;17.90;7.07;;;3.90;99.90;;;;;;5114742;27;20024;-55
2023/12/27 04:16:14;;;;;;;17.85;7.00;;;4.10;99.90;;;;;;5111308;28;20031;-56
2023/12/27 04:18:39;;;;;;;20.33;7.47;;;3.80;99.90;;;;;;5111073;28;20085;-55
2023/12/27 04:21:05;;;;;;;22.10;6.65;;;3.40;99.90;;;;;;5111313;28;20101;-56
2023/12/27 04:23:31;;;;;;;22.85;7.10;;;3.00;99.90;;;;;;5092754;28;20046;-56
2023/12/27 04:25:56;;;;;;;18.02;7.53;;;3.30;99.90;;;;;;5111197;28;20036;-56
2023/12/27 04:28:22;;;;;;;19.40;7.22;;;3.10;99.90;;;;;;5110929;28;20402;-56
2023/12/27 04:30:48;;;;;;;13.95;7.00;;;4.00;99.90;;;;;;5111248;28;20035;-53
2023/12/27 04:33:14;;;;;;;18.67;7.45;;;3.20;99.90;;;;;;5111275;28;20039;-55
2023/12/27 04:35:40;;;;;;;23.55;7.57;;;3.70;99.90;;;;;;5111114;28;20435;-54
2023/12/27 04:38:06;;;;;;;22.60;7.60;;;3.30;99.90;;;;;;5111593;28;20543;-56
2023/12/27 04:40:32;;;;;;;25.38;7.15;;;2.90;99.90;;;;;;5092392;28;20036;-56
2023/12/27 04:42:59;;;;;;;21.73;6.65;;;2.80;99.90;;;;;;5110921;28;20054;-56
2023/12/27 04:45:25;;;;;;;21.80;7.53;;;4.20;99.90;;;;;;5110984;28;20116;-55
2023/12/27 04:47:51;;;;;;;19.70;7.30;;;3.20;99.90;;;;;;5110987;28;20493;-52
2023/12/27 04:50:17;;;;;;;21.70;7.60;;;4.00;99.90;;;;;;5111175;28;20035;-56
2023/12/27 04:52:43;;;;;;;19.48;7.53;;;3.60;99.90;;;;;;5110882;28;20046;-55
2023/12/27 04:55:09;;;;;;;24.10;8.05;;;3.30;99.90;;;;;;5110870;28;20047;-56
2023/12/27 04:57:34;;;;;;;18.67;8.52;;;2.90;99.90;;;;;;5110784;28;20039;-56
2023/12/27 05:00:00;;;;;;;21.17;8.60;;;3.40;99.90;;;;;;5110764;28;20047;-55
2023/12/27 05:02:26;;;;;;;24.52;9.27;;;2.90;99.90;;;;;;5111719;28;20039;-56
2023/12/27 05:04:51;;;;;;;23.35;8.65;;;4.30;99.90;;;;;;5110914;28;20114;-54
2023/12/27 05:07:17;;;;;;;25.38;9.48;;;4.20;99.90;;;;;;5110817;28;20040;-57
2023/12/27 05:09:43;;;;;;;22.40;9.65;;;3.00;99.90;;;;;;5111234;28;20036;-54
2023/12/27 05:12:08;;;;;;;21.00;9.25;;;3.10;99.90;;;;;;5110867;28;20434;-55
2023/12/27 05:14:34;;;;;;;24.20;9.68;;;3.30;99.90;;;;;;5110819;28;20035;-54
2023/12/27 05:17:00;;;;;;;18.55;9.25;;;3.40;99.90;;;;;;5092488;28;20036;-56
2023/12/27 05:19:25;;;;;;;23.10;9.88;;;3.90;99.90;;;;;;5114076;28;20043;-56
2023/12/27 05:21:51;;;;;;;28.77;9.55;;;3.30;99.90;;;;;;5114349;28;20028;-56
2023/12/27 05:24:17;;;;;;;26.00;9.30;;;4.20;99.90;;;;;;5096141;27;20122;-54
2023/12/27 05:26:43;;;;;;;28.10;9.98;;;3.20;99.90;;;;;;5114407;28;20110;-54
2023/12/27 05:29:10;;;;;;;22.02;9.07;;;3.80;99.90;;;;;;5114107;28;20047;-56
2023/12/27 05:31:36;;;;;;;25.20;8.65;;;4.40;99.90;;;;;;5114387;28;20142;-55
2023/12/27 05:34:01;;;;;;;25.23;8.77;;;3.80;99.90;;;;;;5114436;28;20123;-53
2023/12/27 05:36:27;;;;;;;25.67;8.93;;;4.30;99.90;;;;;;5114336;28;20513;-55
2023/12/27 05:38:54;;;;;;;21.20;8.52;;;3.30;99.90;;;;;;5113947;28;20375;-57
2023/12/27 05:41:24;;;;;;;16.13;7.68;;;4.20;99.90;;;;;;5114150;28;20032;-53
2023/12/27 05:43:50;;;;;;;24.10;8.50;;;3.90;99.90;;;;;;5114369;28;20039;-57
2023/12/27 05:46:16;;;;;;;27.10;9.00;;;3.50;99.90;;;;;;5114399;27;20042;-54
2023/12/27 05:48:42;;;;;;;29.20;8.02;;;4.50;99.90;;;;;;5113708;27;20114;-51
2023/12/27 05:51:08;;;;;;;21.80;8.05;;;4.40;99.90;;;;;;5095654;28;20388;-55
2023/12/27 05:53:34;;;;;;;26.75;7.90;;;4.30;99.90;;;;;;5113292;28;20382;-54
2023/12/27 05:55:59;;;;;;;22.38;8.45;;;3.40;99.90;;;;;;5113974;28;20039;-55
2023/12/27 05:58:26;;;;;;;17.33;7.90;;;4.00;99.90;;;;;;5113835;27;20046;-55
2023/12/27 06:00:51;;;;;;;18.67;8.75;;;4.60;99.90;;;;;;5115258;27;20115;-56
2023/12/27 06:03:17;;;;;;;26.85;9.30;;;4.30;99.90;;;;;;5113629;28;20111;-53
2023/12/27 06:05:43;;;;;;;18.38;9.00;;;3.50;99.90;;;;;;5113531;28;20035;-57
2023/12/27 06:08:09;;;;;;;28.48;9.10;;;3.50;99.90;;;;;;5113690;28;20039;-54
2023/12/27 06:10:36;;;;;;;26.10;16.60;;;4.60;99.90;;;;;;5113479;28;20100;-53
2023/12/27 06:13:02;;;;;;;17.55;9.00;;;3.70;99.90;;;;;;5095725;28;20048;-55
2023/12/27 06:15:28;;;;;;;25.92;8.43;;;4.70;99.90;;;;;;5113571;28;20039;-56
2023/12/27 06:17:54;;;;;;;30.00;9.77;;;3.40;99.90;;;;;;5113259;28;20497;-56
2023/12/27 06:20:20;;;;;;;22.38;9.35;;;3.90;99.90;;;;;;5113418;28;20040;-53
2023/12/27 06:22:46;;;;;;;23.60;9.18;;;3.80;99.90;;;;;;5113089;28;20059;-56
2023/12/27 06:25:12;;;;;;;28.67;9.60;;;3.50;99.90;;;;;;5113141;28;20042;-54
2023/12/27 06:27:39;;;;;;;30.42;9.73;;;4.40;99.90;;;;;;5112825;28;20478;-56
2023/12/27 06:30:05;;;;;;;22.90;9.63;;;3.60;99.90;;;;;;5133102;27;20409;-54
2023/12/27 06:32:31;;;;;;;24.45;9.57;;;4.70;99.90;;;;;;5133676;27;20035;-53
2023/12/27 06:34:56;;;;;;;26.45;10.00;;;4.10;99.90;;;;;;5115370;27;20042;-56
2023/12/27 06:37:22;;;;;;;27.38;11.70;;;4.90;99.90;;;;;;5115180;27;20172;-54
2023/12/27 06:39:48;;;;;;;29.08;10.27;;;4.40;99.90;;;;;;5133447;27;20039;-57
2023/12/27 06:42:13;;;;;;;34.03;11.45;;;4.60;99.90;;;;;;5133564;27;20389;-54
2023/12/27 06:44:39;;;;;;;26.45;10.77;;;4.50;99.90;;;;;;5133513;27;20042;-55
2023/12/27 06:47:05;;;;;;;29.48;12.00;;;4.50;99.90;;;;;;5133415;27;20050;-53
2023/12/27 06:49:30;;;;;;;30.25;11.07;;;4.80;99.90;;;;;;5121386;27;20075;-55
2023/12/27 06:51:56;;;;;;;35.53;11.70;;;5.00;99.90;;;;;;5112818;28;20539;-54
2023/12/27 06:54:22;;;;;;;30.33;13.20;;;4.20;99.90;;;;;;5112513;28;20364;-53
2023/12/27 06:56:47;;;;;;;34.50;13.00;;;4.60;99.90;;;;;;5112775;28;20032;-54
2023/12/27 06:59:13;;;;;;;32.80;12.52;;;3.80;99.90;;;;;;5112384;28;20043;-55
2023/12/27 07:01:39;;;;;;;27.42;12.68;;;3.90;99.90;;;;;;5112820;28;20031;-56
2023/12/27 07:04:05;;;;;;;31.50;13.43;;;4.30;99.90;;;;;;5112431;28;20031;-56
2023/12/27 07:06:31;;;;;;;27.77;12.70;;;5.20;99.90;;;;;;5094374;28;20417;-57
2023/12/27 07:08:56;;;;;;;28.05;12.07;;;5.10;99.90;;;;;;5112019;27;20049;-55
2023/12/27 07:11:22;;;;;;;34.88;12.20;;;4.30;99.90;;;;;;5093974;28;20482;-56
2023/12/27 07:13:48;;;;;;;30.38;12.90;;;4.00;99.90;;;;;;5112186;28;20479;-55
2023/12/27 07:16:14;;;;;;;38.60;13.60;;;4.10;99.90;;;;;;5093963;28;20036;-57
2023/12/27 07:18:42;;;;;;;30.65;13.43;;;5.30;99.90;;;;;;5112671;28;20049;-54
2023/12/27 07:21:08;;;;;;;30.25;13.85;;;4.10;99.90;;;;;;5112069;28;20039;-53
2023/12/27 07:23:34;;;;;;;38.90;13.27;;;4.10;99.90;;;;;;5111811;28;20372;-54
2023/12/27 07:26:00;;;;;;;38.08;15.13;;;5.40;99.90;;;;;;5112054;28;20043;-55
2023/12/27 07:28:26;;;;;;;37.72;14.10;;;5.30;99.90;;;;;;5111702;28;20051;-53
2023/12/27 07:30:52;;;;;;;29.45;13.95;;;5.40;99.90;;;;;;5112882;27;20047;-57
2023/12/27 07:33:17;;;;;;;35.72;14.23;;;4.70;99.90;;;;;;5111611;28;20046;-55
2023/12/27 07:35:46;;;;;;;41.55;13.77;;;4.70;99.90;;;;;;5111899;28;20494;-56
2023/12/27 07:38:12;;;;;;;30.55;13.60;;;5.00;99.90;;;;;;5112062;28;20419;-56
2023/12/27 07:40:37;;;;;;;40.03;15.77;;;4.90;99.90;;;;;;5110895;28;20046;-56
2023/12/27 07:43:05;;;;;;;49.03;16.92;;;5.50;99.90;;;;;;5112092;28;20371;-57
2023/12/27 07:45:31;;;;;;;39.85;15.65;;;4.50;99.90;;;;;;5111539;28;20035;-54
2023/12/27 07:47:57;;;;;;;40.20;16.25;;;5.60;99.90;;;;;;5111800;28;20107;-54
2023/12/27 07:50:22;;;;;;;36.40;15.38;;;4.20;99.90;;;;;;5111366;28;20047;-57
2023/12/27 07:52:48;;;;;;;31.88;14.80;;;5.50;99.90;;;;;;5111333;27;20044;-52
2023/12/27 07:55:14;;;;;;;35.90;15.98;;;5.60;99.90;;;;;;5111288;28;20291;-56
2023/12/27 07:57:41;;;;;;;39.20;15.70;;;5.00;99.90;;;;;;5111725;28;20054;-55
2023/12/27 08:00:08;;;;;;;37.47;15.18;;;4.40;99.90;;;;;;5111346;28;20101;-56
2023/12/27 08:02:34;;;;;;;46.83;16.38;;;5.40;99.90;;;;;;5111511;27;20093;-57
2023/12/27 08:04:59;;;;;;;34.05;15.07;;;4.40;99.90;;;;;;5111091;28;20039;-51
2023/12/27 08:07:25;;;;;;;43.22;15.32;;;5.20;99.90;;;;;;5111406;27;20055;-56
2023/12/27 08:09:51;;;;;;;40.28;16.48;;;5.60;99.90;;;;;;5117116;27;20077;-54
2023/12/27 08:12:16;;;;;;;36.60;15.68;;;4.50;99.90;;;;;;5117975;27;20064;-56
2023/12/27 08:14:43;;;;;;;41.45;16.65;;;5.40;99.90;;;;;;5118504;27;20031;-53
2023/12/27 08:17:09;;;;;;;38.97;16.98;;;4.40;99.90;;;;;;5118988;27;20036;-54
2023/12/27 08:19:35;;;;;;;42.05;17.00;;;4.90;99.90;;;;;;5119745;27;20111;-55
2023/12/27 08:22:01;;;;;;;45.88;16.98;;;4.80;99.90;;;;;;5119315;27;20062;-55
2023/12/27 08:24:26;;;;;;;38.83;18.15;;;4.50;99.90;;;;;;5118265;27;20541;-54
2023/12/27 08:26:52;;;;;;;33.05;16.17;;;5.20;99.90;;;;;;5117414;27;20046;-56
2023/12/27 08:29:17;;;;;;;39.42;16.58;;;4.70;99.90;;;;;;5117902;28;20043;-56
2023/12/27 08:31:43;;;;;;;36.88;15.88;;;4.70;99.90;;;;;;5120265;28;20100;-57
2023/12/27 08:34:09;;;;;;;39.47;16.77;;;5.50;99.90;;;;;;5118785;28;20038;-55
2023/12/27 08:36:34;;;;;;;40.80;15.75;;;4.70;99.90;;;;;;5117557;28;20063;-54
2023/12/27 08:39:00;;;;;;;46.90;16.38;;;4.70;99.90;;;;;;5117377;28;20494;-54
2023/12/27 08:41:26;;;;;;;40.10;15.80;;;5.90;99.90;;;;;;5118466;28;20092;-55
2023/12/27 08:43:53;;;;;;;44.30;16.70;;;5.70;99.90;;;;;;5119832;28;20035;-55
2023/12/27 08:46:21;;;;;;;36.22;15.00;;;5.60;99.90;;;;;;5118543;28;20035;-55
2023/12/27 08:48:47;;;;;;;44.55;15.32;;;5.10;99.90;;;;;;5114473;28;20024;-56
2023/12/27 08:51:13;;;;;;;38.38;15.52;;;5.70;99.90;;;;;;5117379;27;20051;-56
2023/12/27 08:53:39;;;;;;;37.95;14.23;;;6.00;99.90;;;;;;5122917;27;20163;-55
2023/12/27 08:56:05;;;;;;;33.85;14.45;;;5.60;99.90;;;;;;5120113;27;20035;-57
2023/12/27 08:58:32;;;;;;;34.55;13.80;;;5.90;99.90;;;;;;5122966;27;20140;-56
2023/12/27 09:00:58;;;;;;;41.60;15.05;;;5.20;99.90;;;;;;5121137;27;20505;-57
2023/12/27 09:03:24;;;;;;;33.25;12.88;;;5.60;99.90;;;;;;5122022;27;20050;-52
2023/12/27 09:05:50;;;;;;;39.97;13.30;;;4.90;99.90;;;;;;5119974;27;20042;-55
2023/12/27 09:32:58;;;;;;;;;;;;;;;;;;5100130;27;19942;-58
2023/12/27 09:35:24;;;;;;;;;;;6.00;99.90;;;;;;5099033;28;20375;-59
2023/12/27 09:37:49;;;;;;;;;;;5.40;99.90;;;;;;5100201;28;20022;-58
2023/12/27 09:40:15;;;;;;;;;;;6.60;99.90;;;;;;5100923;28;19930;-59
2023/12/27 09:42:41;;;;;;;;;;;6.30;99.90;;;;;;5098718;28;19920;-59
2023/12/27 09:45:07;;;;;;;;;;;5.60;99.90;;;;;;5099947;28;20469;-58
2023/12/27 09:47:33;;;;;;;;;;;5.40;99.90;;;;;;5080852;28;20043;-59
2023/12/27 09:49:59;;;;;;;;;;;5.80;99.90;;;;;;5100301;28;20018;-59
2023/12/27 09:52:28;;;;;;;;;;;6.80;99.90;;;;;;5098563;28;19924;-59
2023/12/27 09:54:53;;;;;;;;;;;7.10;99.90;;;;;;5100178;28;20317;-59
2023/12/27 09:57:20;;;;;;;;;;;7.00;99.90;;;;;;5099527;28;19920;-60
2023/12/27 09:59:46;;;;;;;;;;;5.70;99.90;;;;;;5099607;28;19920;-59
2023/12/27 10:02:15;;;;;;;;;;;6.60;99.90;;;;;;5098424;28;21330;-60
2023/12/27 10:04:46;;;;;;;;;;;6.90;99.90;;;;;;5099144;28;19916;-59
2023/12/27 10:07:12;;;;;;;;;;;5.70;99.90;;;;;;5098904;28;19999;-59
2023/12/27 10:09:38;;;;;;;;;;;5.80;99.90;;;;;;5099355;28;19999;-60
2023/12/27 10:12:05;;;;;;;;;;;6.60;99.90;;;;;;5098313;28;19938;-60
2023/12/27 10:14:31;;;;;;;;;;;6.90;99.90;;;;;;5099367;28;19928;-60
2023/12/27 10:16:56;;;;;;;;;;;7.70;99.90;;;;;;5099801;28;19924;-59
2023/12/27 10:19:41;;;;;;;;;;;6.00;99.90;;;;;;5098832;28;19916;-59
2023/12/27 10:22:10;;;;;;;;;;;6.80;99.90;;;;;;5096834;28;19924;-60
2023/12/27 10:24:36;;;;;;;;;;;5.70;99.90;;;;;;5098556;28;19924;-60
2023/12/27 10:27:02;;;;;;;;;;;6.50;99.90;;;;;;5099203;28;19918;-60
2023/12/27 10:29:29;;;;;;;;;;;5.90;99.90;;;;;;5098261;28;19924;-60
2023/12/27 10:31:54;;;;;;;;;;;6.90;99.90;;;;;;5098002;28;19924;-60
2023/12/27 10:34:20;;;;;;;;;;;7.20;99.90;;;;;;5097780;28;19970;-60
2023/12/27 10:36:49;;;;;;;;;;;7.60;99.90;;;;;;5099258;28;19931;-59
2023/12/27 10:39:17;;;;;;;;;;;7.20;99.90;;;;;;5098426;28;19955;-60
2023/12/27 10:41:42;;;;;;;;;;;7.50;99.90;;;;;;5099019;28;19963;-59
2023/12/27 10:44:08;;;;;;;;;;;7.60;99.90;;;;;;5086294;28;19955;-59
2023/12/27 10:46:34;;;;;;;;;;;7.40;99.90;;;;;;5085908;28;19920;-60
2023/12/27 10:51:38;;;;;;;;;;;6.30;99.90;;;;;;5353898;22;19944;-60
2023/12/27 10:54:05;;;;;;;;;;;7.20;99.90;;;;;;5011480;28;19931;-60
2023/12/27 10:56:37;;;;;;;;;;;7.30;99.90;;;;;;5026996;28;19918;-59
2023/12/27 10:59:06;;;;;;;;;;;7.30;99.90;;;;;;5032087;28;19917;-60
2023/12/27 11:01:35;;;;;;;;;;;6.30;99.90;;;;;;5027969;28;20027;-60
2023/12/27 11:04:04;;;;;;;;;;;8.10;99.90;;;;;;5033118;28;19917;-59
2023/12/27 11:06:30;;;;;;;;;;;6.80;99.90;;;;;;5030286;28;20360;-61
2023/12/27 11:08:56;;;;;;;;;;;7.40;99.90;;;;;;5032616;28;19971;-61
2023/12/27 11:11:23;;;;;;;;;;;6.70;99.90;;;;;;5014814;28;19929;-61
2023/12/27 11:13:49;;;;;;;;;;;7.30;99.90;;;;;;5029863;28;19925;-60
2023/12/27 11:16:16;;;;;;;;;;;7.10;99.90;;;;;;5030904;28;19917;-60
2023/12/27 11:18:42;;;;;;;;;;;7.50;99.90;;;;;;5032370;28;19923;-60
2023/12/27 11:21:07;;;;;;;;;;;8.20;99.90;;;;;;5027793;28;19917;-60
2023/12/27 11:23:33;;;;;;;;;;;8.40;99.90;;;;;;5015829;28;20402;-60
2023/12/27 11:26:00;;;;;;;;;;;8.90;99.90;;;;;;5018074;28;20011;-60
2023/12/27 11:28:25;;;;;;;;;;;7.40;99.90;;;;;;5016846;28;19924;-59
2023/12/27 11:30:52;;;;;;;;;;;7.00;99.90;;;;;;5014009;28;19926;-60
2023/12/27 11:33:19;;;;;;;;;;;;;;;;;;5014072;28;19933;-64
2023/12/27 11:35:46;;;;;;;;;;;7.70;99.90;;;;;;5014541;28;20359;-62
2023/12/27 11:38:31;;;;;;;;;;;7.80;99.90;;;;;;5100810;27;19917;-60
2023/12/27 11:40:59;;;;;;;;;;;7.10;99.90;;;;;;5080323;28;19927;-61
2023/12/27 11:43:26;;;;;;;;;;;8.40;99.90;;;;;;5078679;28;20465;-60
2023/12/27 11:46:06;;;;;;;;;;;8.10;99.90;;;;;;5080148;28;19917;-60
2023/12/27 11:48:35;;;;;;;;;;;7.40;99.90;;;;;;5079063;28;20255;-60
2023/12/27 11:51:01;;;;;;;;;;;6.90;99.90;;;;;;5079693;28;20317;-60
2023/12/27 11:53:27;;;;;;;;;;;8.50;99.90;;;;;;5079547;28;19970;-61
2023/12/27 11:55:53;;;;;;;;;;;8.60;99.90;;;;;;5078721;28;19947;-60
2023/12/27 11:58:32;;;;;;;;;;;7.70;99.90;;;;;;5079001;28;19924;-61
2023/12/27 12:01:17;;;;;;;;;;;7.80;99.90;;;;;;5079385;28;19994;-61
2023/12/27 12:03:44;;;;;;;;;;;8.10;99.90;;;;;;5075241;28;19916;-59
2023/12/27 12:06:10;;;;;;;;;;;7.90;99.90;;;;;;5079421;28;19916;-62
2023/12/27 12:08:46;;;;;;;;;;;7.20;99.90;;;;;;5078955;28;20652;-60
2023/12/27 12:11:15;;;;;;;;;;;8.10;99.90;;;;;;5076827;28;20050;-59
2023/12/27 12:13:40;;;;;;;;;;;7.00;99.90;;;;;;5079856;28;19920;-61
2023/12/27 12:16:07;;;;;;;;;;;8.00;99.90;;;;;;5078985;28;19924;-60
2023/12/27 12:18:37;;;;;;;;;;;7.40;99.90;;;;;;5078324;28;19927;-61
2023/12/27 12:21:03;;;;;;;;;;;7.80;99.90;;;;;;5078984;28;20393;-60
2023/12/27 12:23:30;;;;;;;;;;;7.60;99.90;;;;;;5078671;28;19921;-61
2023/12/27 12:26:00;;;;;;;;;;;8.20;99.90;;;;;;5079706;28;20078;-60
2023/12/27 12:28:29;;;;;;;;;;;8.10;99.90;;;;;;5079289;28;19921;-60
2023/12/27 12:30:55;;;;;;;;;;;7.50;99.90;;;;;;5078997;28;19916;-61
2023/12/27 12:33:21;;;;;;;;;;;7.60;99.90;;;;;;5079609;28;20340;-60
2023/12/27 12:35:47;;;;;;;;;;;8.10;99.90;;;;;;5078878;28;19928;-61
2023/12/27 12:38:12;;;;;;;;;;;8.80;99.90;;;;;;5098153;28;20374;-60
2023/12/27 12:40:38;;;;;;;;;;;7.30;99.90;;;;;;5100248;28;20796;-61
2023/12/27 12:43:04;;;;;;;;;;;8.10;99.90;;;;;;5101265;28;19927;-60
2023/12/27 12:45:32;;;;;;;;;;;8.30;99.90;;;;;;5100228;28;19924;-60
2023/12/27 12:47:58;;;;;;;;;;;7.70;99.90;;;;;;5102260;28;19924;-58
2023/12/27 12:50:23;;;;;;;;;;;7.90;99.90;;;;;;5092030;28;20283;-59
2023/12/27 12:52:50;;;;;;;;;;;8.60;99.90;;;;;;5074517;28;19920;-61
2023/12/27 12:55:17;;;;;;;;;;;8.50;99.90;;;;;;5075610;28;19947;-60
2023/12/27 12:57:42;;;;;;;;;;;8.30;99.90;;;;;;5092977;28;20415;-60
2023/12/27 13:00:09;;;;;;;;;;;8.70;99.90;;;;;;5093723;28;20003;-59
2023/12/27 13:02:34;;;;;;;;;;;7.70;99.90;;;;;;5094126;28;20358;-60
2023/12/27 13:05:00;;;;;;;;;;;8.40;99.90;;;;;;5093853;28;19920;-61
2023/12/27 13:07:27;;;;;;;;;;;8.60;99.90;;;;;;5093629;28;19927;-60
2023/12/27 13:09:53;;;;;;;;;;;7.80;99.90;;;;;;5093513;28;20413;-60
2023/12/27 13:12:19;;;;;;;;;;;8.20;99.90;;;;;;5093700;28;19985;-60
2023/12/27 13:14:44;;;;;;;;;;;8.70;99.90;;;;;;5091886;28;20454;-59
2023/12/27 13:18:46;;;;;;;;;;;10.50;99.90;;;;;;5058566;28;19977;-62
2023/12/27 13:21:11;;;;;;;;;;;8.90;99.90;;;;;;5032930;27;19929;-61
2023/12/27 13:23:37;;;;;;;;;;;8.10;99.90;;;;;;5016615;27;20008;-62
2023/12/27 13:26:03;;;;;;;15.85;8.75;;;8.90;99.90;;;;;;5049369;27;20755;-64
2023/12/27 13:28:29;;;;;;;17.13;10.82;;;8.40;99.90;;;;;;5034002;27;20039;-63
2023/12/27 13:30:54;;;;;;;17.38;13.68;;;9.20;99.90;;;;;;5022112;28;20058;-60
2023/12/27 13:33:21;;;;;;;21.13;13.27;;;9.10;99.90;;;;;;5038893;27;20043;-59
2023/12/27 13:35:48;;;;;;;16.83;9.88;;;8.60;99.90;;;;;;5038178;28;20043;-59